sensor_id;sensor_type;location;lat;lon;timestamp;P1;durP1;ratioP1;P2;durP2;ratioP2
28862;SDS011;15994;51.796;13.006;2023-04-01T00:01:00;5.70;;;1.33;;
28862;SDS011;15994;51.796;13.006;2023-04-01T00:03:28;5.68;;;1.38;;
28862;SDS011;15994;51.796;13.006;2023-04-01T00:05:56;4.90;;;1.33;;
28862;SDS011;15994;51.796;13.006;2023-04-01T00:08:24;5.82;;;1.25;;
28862;SDS011;15994;51.796;13.006;2023-04-01T00:10:51;6.75;;;1.60;;
28862;SDS011;15994;51.796;13.006;2023-04-01T00:13:18;3.45;;;1.50;;
28862;SDS011;15994;51.796;13.006;2023-04-01T00:15:45;6.45;;;1.25;;
28862;SDS011;15994;51.796;13.006;2023-04-01T00:18:11;5.78;;;1.10;;
28862;SDS011;15994;51.796;13.006;2023-04-01T00:20:38;6.70;;;1.48;;
28862;SDS011;15994;51.796;13.006;2023-04-01T00:23:05;7.47;;;1.48;;
28862;SDS011;15994;51.796;13.006;2023-04-01T00:25:31;7.63;;;1.55;;
28862;SDS011;15994;51.796;13.006;2023-04-01T00:27:58;5.53;;;1.30;;
28862;SDS011;15994;51.796;13.006;2023-04-01T00:30:24;6.15;;;1.60;;
28862;SDS011;15994;51.796;13.006;2023-04-01T00:32:51;6.63;;;1.70;;
28862;SDS011;15994;51.796;13.006;2023-04-01T00:35:18;5.63;;;1.60;;
28862;SDS011;15994;51.796;13.006;2023-04-01T00:37:45;8.70;;;1.50;;
28862;SDS011;15994;51.796;13.006;2023-04-01T00:40:22;6.53;;;1.60;;
28862;SDS011;15994;51.796;13.006;2023-04-01T00:42:52;4.53;;;1.45;;
28862;SDS011;15994;51.796;13.006;2023-04-01T00:45:26;7.10;;;1.70;;
28862;SDS011;15994;51.796;13.006;2023-04-01T00:47:55;6.93;;;1.73;;
28862;SDS011;15994;51.796;13.006;2023-04-01T00:50:23;12.55;;;2.30;;
28862;SDS011;15994;51.796;13.006;2023-04-01T00:52:52;5.75;;;1.58;;
28862;SDS011;15994;51.796;13.006;2023-04-01T00:55:19;6.78;;;1.70;;
28862;SDS011;15994;51.796;13.006;2023-04-01T00:57:47;6.43;;;1.50;;
28862;SDS011;15994;51.796;13.006;2023-04-01T01:00:15;5.65;;;1.70;;
28862;SDS011;15994;51.796;13.006;2023-04-01T01:02:43;4.45;;;1.50;;
28862;SDS011;15994;51.796;13.006;2023-04-01T01:05:12;8.10;;;1.70;;
28862;SDS011;15994;51.796;13.006;2023-04-01T01:07:44;5.65;;;1.80;;
28862;SDS011;15994;51.796;13.006;2023-04-01T01:10:34;2.55;;;1.17;;
28862;SDS011;15994;51.796;13.006;2023-04-01T01:13:05;5.90;;;1.30;;
28862;SDS011;15994;51.796;13.006;2023-04-01T01:15:37;3.65;;;1.40;;
28862;SDS011;15994;51.796;13.006;2023-04-01T01:23:47;8.13;;;1.83;;
28862;SDS011;15994;51.796;13.006;2023-04-01T01:26:50;5.30;;;1.63;;
28862;SDS011;15994;51.796;13.006;2023-04-01T01:29:31;4.05;;;1.33;;
28862;SDS011;15994;51.796;13.006;2023-04-01T01:37:37;5.38;;;1.50;;
28862;SDS011;15994;51.796;13.006;2023-04-01T01:40:07;5.68;;;1.70;;
28862;SDS011;15994;51.796;13.006;2023-04-01T01:42:37;6.30;;;1.70;;
28862;SDS011;15994;51.796;13.006;2023-04-01T01:45:07;5.40;;;1.45;;
28862;SDS011;15994;51.796;13.006;2023-04-01T01:47:36;4.55;;;1.60;;
28862;SDS011;15994;51.796;13.006;2023-04-01T01:50:03;9.27;;;2.13;;
28862;SDS011;15994;51.796;13.006;2023-04-01T01:52:31;5.80;;;1.60;;
28862;SDS011;15994;51.796;13.006;2023-04-01T01:54:58;4.70;;;1.88;;
28862;SDS011;15994;51.796;13.006;2023-04-01T01:57:28;7.05;;;1.65;;
28862;SDS011;15994;51.796;13.006;2023-04-01T02:00:00;6.07;;;1.75;;
28862;SDS011;15994;51.796;13.006;2023-04-01T02:02:38;6.57;;;1.80;;
28862;SDS011;15994;51.796;13.006;2023-04-01T02:05:10;6.57;;;1.83;;
28862;SDS011;15994;51.796;13.006;2023-04-01T02:07:40;4.72;;;1.77;;
28862;SDS011;15994;51.796;13.006;2023-04-01T02:10:11;10.38;;;1.80;;
28862;SDS011;15994;51.796;13.006;2023-04-01T02:12:39;6.43;;;1.70;;
28862;SDS011;15994;51.796;13.006;2023-04-01T02:15:08;5.60;;;1.80;;
28862;SDS011;15994;51.796;13.006;2023-04-01T02:17:38;4.40;;;1.48;;
28862;SDS011;15994;51.796;13.006;2023-04-01T02:20:11;4.88;;;1.83;;
28862;SDS011;15994;51.796;13.006;2023-04-01T02:22:40;6.60;;;1.70;;
28862;SDS011;15994;51.796;13.006;2023-04-01T02:25:12;5.63;;;1.48;;
28862;SDS011;15994;51.796;13.006;2023-04-01T02:27:40;4.72;;;1.40;;
28862;SDS011;15994;51.796;13.006;2023-04-01T02:30:09;8.60;;;1.73;;
28862;SDS011;15994;51.796;13.006;2023-04-01T02:32:37;5.40;;;1.63;;
28862;SDS011;15994;51.796;13.006;2023-04-01T02:35:06;6.20;;;1.30;;
28862;SDS011;15994;51.796;13.006;2023-04-01T02:37:36;5.22;;;1.40;;
28862;SDS011;15994;51.796;13.006;2023-04-01T02:40:04;8.52;;;1.65;;
28862;SDS011;15994;51.796;13.006;2023-04-01T02:42:33;7.85;;;1.73;;
28862;SDS011;15994;51.796;13.006;2023-04-01T02:45:00;4.72;;;1.50;;
28862;SDS011;15994;51.796;13.006;2023-04-01T02:47:26;5.63;;;1.52;;
28862;SDS011;15994;51.796;13.006;2023-04-01T02:49:54;4.40;;;1.30;;
28862;SDS011;15994;51.796;13.006;2023-04-01T02:52:24;4.95;;;1.60;;
28862;SDS011;15994;51.796;13.006;2023-04-01T02:54:50;6.55;;;1.50;;
28862;SDS011;15994;51.796;13.006;2023-04-01T02:57:17;5.30;;;1.65;;
28862;SDS011;15994;51.796;13.006;2023-04-01T02:59:44;4.85;;;1.40;;
28862;SDS011;15994;51.796;13.006;2023-04-01T03:02:11;4.68;;;1.65;;
28862;SDS011;15994;51.796;13.006;2023-04-01T03:04:38;4.35;;;1.40;;
28862;SDS011;15994;51.796;13.006;2023-04-01T03:07:05;5.07;;;1.77;;
28862;SDS011;15994;51.796;13.006;2023-04-01T03:09:31;5.20;;;1.58;;
28862;SDS011;15994;51.796;13.006;2023-04-01T03:11:58;4.43;;;1.50;;
28862;SDS011;15994;51.796;13.006;2023-04-01T03:14:24;4.38;;;1.50;;
28862;SDS011;15994;51.796;13.006;2023-04-01T03:16:51;6.95;;;1.55;;
28862;SDS011;15994;51.796;13.006;2023-04-01T03:19:17;7.88;;;1.85;;
28862;SDS011;15994;51.796;13.006;2023-04-01T03:21:44;4.68;;;1.30;;
28862;SDS011;15994;51.796;13.006;2023-04-01T03:24:10;5.85;;;1.40;;
28862;SDS011;15994;51.796;13.006;2023-04-01T03:26:37;7.38;;;1.80;;
28862;SDS011;15994;51.796;13.006;2023-04-01T03:29:03;7.07;;;1.70;;
28862;SDS011;15994;51.796;13.006;2023-04-01T03:31:30;8.93;;;1.83;;
28862;SDS011;15994;51.796;13.006;2023-04-01T03:33:57;3.50;;;1.48;;
28862;SDS011;15994;51.796;13.006;2023-04-01T03:36:23;6.85;;;1.77;;
28862;SDS011;15994;51.796;13.006;2023-04-01T03:38:50;8.00;;;1.80;;
28862;SDS011;15994;51.796;13.006;2023-04-01T03:41:16;4.53;;;1.55;;
28862;SDS011;15994;51.796;13.006;2023-04-01T03:43:43;5.18;;;1.67;;
28862;SDS011;15994;51.796;13.006;2023-04-01T03:46:10;5.95;;;1.80;;
28862;SDS011;15994;51.796;13.006;2023-04-01T03:48:36;5.72;;;1.70;;
28862;SDS011;15994;51.796;13.006;2023-04-01T03:51:06;6.22;;;1.65;;
28862;SDS011;15994;51.796;13.006;2023-04-01T03:53:33;4.50;;;1.65;;
28862;SDS011;15994;51.796;13.006;2023-04-01T03:56:03;4.10;;;1.70;;
28862;SDS011;15994;51.796;13.006;2023-04-01T03:58:33;5.28;;;1.90;;
28862;SDS011;15994;51.796;13.006;2023-04-01T04:00:59;3.30;;;1.73;;
28862;SDS011;15994;51.796;13.006;2023-04-01T04:03:26;6.22;;;1.83;;
28862;SDS011;15994;51.796;13.006;2023-04-01T04:05:53;4.32;;;1.80;;
28862;SDS011;15994;51.796;13.006;2023-04-01T04:08:20;6.85;;;1.90;;
28862;SDS011;15994;51.796;13.006;2023-04-01T04:10:47;3.72;;;1.60;;
28862;SDS011;15994;51.796;13.006;2023-04-01T04:13:20;4.18;;;1.73;;
28862;SDS011;15994;51.796;13.006;2023-04-01T04:15:46;7.20;;;2.17;;
28862;SDS011;15994;51.796;13.006;2023-04-01T04:18:13;5.43;;;1.70;;
28862;SDS011;15994;51.796;13.006;2023-04-01T04:20:45;8.43;;;2.88;;
28862;SDS011;15994;51.796;13.006;2023-04-01T04:23:15;7.57;;;2.67;;
28862;SDS011;15994;51.796;13.006;2023-04-01T04:25:41;9.25;;;2.30;;
28862;SDS011;15994;51.796;13.006;2023-04-01T04:28:19;7.68;;;2.92;;
28862;SDS011;15994;51.796;13.006;2023-04-01T04:30:45;48.22;;;25.30;;
28862;SDS011;15994;51.796;13.006;2023-04-01T04:33:12;62.65;;;36.78;;
28862;SDS011;15994;51.796;13.006;2023-04-01T04:35:38;53.28;;;30.88;;
28862;SDS011;15994;51.796;13.006;2023-04-01T04:38:04;42.92;;;25.02;;
28862;SDS011;15994;51.796;13.006;2023-04-01T04:40:31;31.92;;;18.77;;
28862;SDS011;15994;51.796;13.006;2023-04-01T04:42:57;16.25;;;9.02;;
28862;SDS011;15994;51.796;13.006;2023-04-01T04:45:24;13.32;;;6.82;;
28862;SDS011;15994;51.796;13.006;2023-04-01T04:47:50;12.90;;;6.55;;
28862;SDS011;15994;51.796;13.006;2023-04-01T04:50:17;10.82;;;5.78;;
28862;SDS011;15994;51.796;13.006;2023-04-01T04:52:43;8.60;;;4.20;;
28862;SDS011;15994;51.796;13.006;2023-04-01T04:55:10;8.45;;;4.20;;
28862;SDS011;15994;51.796;13.006;2023-04-01T04:57:36;7.80;;;3.60;;
28862;SDS011;15994;51.796;13.006;2023-04-01T05:00:03;7.53;;;3.45;;
28862;SDS011;15994;51.796;13.006;2023-04-01T05:02:30;6.10;;;3.58;;
28862;SDS011;15994;51.796;13.006;2023-04-01T05:04:57;5.00;;;2.47;;
28862;SDS011;15994;51.796;13.006;2023-04-01T05:07:23;5.68;;;2.28;;
28862;SDS011;15994;51.796;13.006;2023-04-01T05:09:50;5.75;;;2.50;;
28862;SDS011;15994;51.796;13.006;2023-04-01T05:12:16;5.45;;;2.40;;
28862;SDS011;15994;51.796;13.006;2023-04-01T05:14:43;3.88;;;1.73;;
28862;SDS011;15994;51.796;13.006;2023-04-01T05:17:10;3.25;;;1.73;;
28862;SDS011;15994;51.796;13.006;2023-04-01T05:19:38;4.97;;;2.10;;
28862;SDS011;15994;51.796;13.006;2023-04-01T05:22:05;6.35;;;2.25;;
28862;SDS011;15994;51.796;13.006;2023-04-01T05:24:32;5.90;;;2.05;;
28862;SDS011;15994;51.796;13.006;2023-04-01T05:26:59;7.50;;;1.90;;
28862;SDS011;15994;51.796;13.006;2023-04-01T05:29:25;6.63;;;1.80;;
28862;SDS011;15994;51.796;13.006;2023-04-01T05:31:52;5.68;;;1.60;;
28862;SDS011;15994;51.796;13.006;2023-04-01T05:34:19;5.80;;;1.60;;
28862;SDS011;15994;51.796;13.006;2023-04-01T05:36:45;8.50;;;1.92;;
28862;SDS011;15994;51.796;13.006;2023-04-01T05:39:12;5.80;;;1.70;;
28862;SDS011;15994;51.796;13.006;2023-04-01T05:41:38;6.28;;;1.45;;
28862;SDS011;15994;51.796;13.006;2023-04-01T05:44:05;4.90;;;1.33;;
28862;SDS011;15994;51.796;13.006;2023-04-01T05:46:32;5.22;;;1.88;;
28862;SDS011;15994;51.796;13.006;2023-04-01T05:48:58;5.93;;;1.48;;
28862;SDS011;15994;51.796;13.006;2023-04-01T05:51:25;5.40;;;1.48;;
28862;SDS011;15994;51.796;13.006;2023-04-01T05:53:51;3.15;;;1.42;;
28862;SDS011;15994;51.796;13.006;2023-04-01T05:56:18;3.92;;;1.30;;
28862;SDS011;15994;51.796;13.006;2023-04-01T05:58:46;4.30;;;1.25;;
28862;SDS011;15994;51.796;13.006;2023-04-01T06:01:17;3.95;;;1.40;;
28862;SDS011;15994;51.796;13.006;2023-04-01T06:03:44;3.75;;;1.50;;
28862;SDS011;15994;51.796;13.006;2023-04-01T06:06:14;6.10;;;1.60;;
28862;SDS011;15994;51.796;13.006;2023-04-01T06:09:07;7.13;;;1.40;;
28862;SDS011;15994;51.796;13.006;2023-04-01T06:11:53;5.13;;;1.42;;
28862;SDS011;15994;51.796;13.006;2023-04-01T06:23:24;7.38;;;1.50;;
28862;SDS011;15994;51.796;13.006;2023-04-01T06:29:17;4.35;;;1.30;;
28862;SDS011;15994;51.796;13.006;2023-04-01T06:34:58;5.07;;;1.50;;
28862;SDS011;15994;51.796;13.006;2023-04-01T06:45:24;5.03;;;1.73;;
28862;SDS011;15994;51.796;13.006;2023-04-01T06:55:50;6.05;;;1.50;;
28862;SDS011;15994;51.796;13.006;2023-04-01T07:00:58;6.63;;;1.40;;
28862;SDS011;15994;51.796;13.006;2023-04-01T07:03:41;5.40;;;1.50;;
28862;SDS011;15994;51.796;13.006;2023-04-01T07:06:21;3.90;;;1.50;;
28862;SDS011;15994;51.796;13.006;2023-04-01T07:08:57;4.35;;;1.20;;
28862;SDS011;15994;51.796;13.006;2023-04-01T07:11:29;4.32;;;1.60;;
28862;SDS011;15994;51.796;13.006;2023-04-01T07:14:02;5.40;;;1.80;;
28862;SDS011;15994;51.796;13.006;2023-04-01T07:16:39;4.63;;;1.60;;
28862;SDS011;15994;51.796;13.006;2023-04-01T07:19:31;6.25;;;1.20;;
28862;SDS011;15994;51.796;13.006;2023-04-01T07:22:09;6.22;;;1.20;;
28862;SDS011;15994;51.796;13.006;2023-04-01T07:24:49;5.50;;;1.27;;
28862;SDS011;15994;51.796;13.006;2023-04-01T07:27:17;6.35;;;1.40;;
28862;SDS011;15994;51.796;13.006;2023-04-01T07:29:43;5.35;;;1.42;;
28862;SDS011;15994;51.796;13.006;2023-04-01T07:32:20;4.60;;;1.30;;
28862;SDS011;15994;51.796;13.006;2023-04-01T07:35:25;6.38;;;1.30;;
28862;SDS011;15994;51.796;13.006;2023-04-01T07:48:51;4.07;;;1.23;;
28862;SDS011;15994;51.796;13.006;2023-04-01T07:51:41;5.50;;;1.10;;
28862;SDS011;15994;51.796;13.006;2023-04-01T08:00:05;4.72;;;1.30;;
28862;SDS011;15994;51.796;13.006;2023-04-01T08:05:33;5.45;;;1.30;;
28862;SDS011;15994;51.796;13.006;2023-04-01T08:22:49;4.05;;;1.05;;
28862;SDS011;15994;51.796;13.006;2023-04-01T08:25:19;2.85;;;1.02;;
28862;SDS011;15994;51.796;13.006;2023-04-01T08:28:11;4.45;;;1.20;;
28862;SDS011;15994;51.796;13.006;2023-04-01T08:30:47;4.50;;;1.45;;
28862;SDS011;15994;51.796;13.006;2023-04-01T08:33:23;4.32;;;1.00;;
28862;SDS011;15994;51.796;13.006;2023-04-01T08:36:02;3.88;;;1.08;;
28862;SDS011;15994;51.796;13.006;2023-04-01T08:38:36;2.97;;;0.80;;
28862;SDS011;15994;51.796;13.006;2023-04-01T08:50:01;3.60;;;1.10;;
28862;SDS011;15994;51.796;13.006;2023-04-01T08:55:31;2.80;;;1.13;;
28862;SDS011;15994;51.796;13.006;2023-04-01T08:58:32;3.63;;;1.10;;
28862;SDS011;15994;51.796;13.006;2023-04-01T09:01:26;3.42;;;0.80;;
28862;SDS011;15994;51.796;13.006;2023-04-01T09:04:13;3.72;;;1.08;;
28862;SDS011;15994;51.796;13.006;2023-04-01T09:06:56;3.47;;;0.90;;
28862;SDS011;15994;51.796;13.006;2023-04-01T09:33:17;3.38;;;1.00;;
28862;SDS011;15994;51.796;13.006;2023-04-01T09:39:37;3.30;;;0.90;;
28862;SDS011;15994;51.796;13.006;2023-04-01T09:44:50;4.20;;;0.90;;
28862;SDS011;15994;51.796;13.006;2023-04-01T09:50:34;2.42;;;0.90;;
28862;SDS011;15994;51.796;13.006;2023-04-01T09:59:07;5.13;;;1.20;;
28862;SDS011;15994;51.796;13.006;2023-04-01T10:12:47;3.20;;;0.90;;
28862;SDS011;15994;51.796;13.006;2023-04-01T10:29:19;3.53;;;0.68;;
28862;SDS011;15994;51.796;13.006;2023-04-01T10:34:54;3.27;;;0.80;;
28862;SDS011;15994;51.796;13.006;2023-04-01T10:37:47;2.40;;;0.60;;
28862;SDS011;15994;51.796;13.006;2023-04-01T10:40:35;2.20;;;0.60;;
28862;SDS011;15994;51.796;13.006;2023-04-01T10:43:21;2.35;;;0.60;;
28862;SDS011;15994;51.796;13.006;2023-04-01T10:54:56;3.00;;;0.70;;
28862;SDS011;15994;51.796;13.006;2023-04-01T10:57:56;2.35;;;0.60;;
28862;SDS011;15994;51.796;13.006;2023-04-01T11:10:19;2.38;;;0.70;;
28862;SDS011;15994;51.796;13.006;2023-04-01T11:21:56;1.45;;;0.45;;
28862;SDS011;15994;51.796;13.006;2023-04-01T11:25:04;2.17;;;0.60;;
28862;SDS011;15994;51.796;13.006;2023-04-01T11:33:53;2.83;;;0.50;;
28862;SDS011;15994;51.796;13.006;2023-04-01T11:42:30;2.53;;;0.60;;
28862;SDS011;15994;51.796;13.006;2023-04-01T11:47:58;3.20;;;0.60;;
28862;SDS011;15994;51.796;13.006;2023-04-01T11:50:53;2.40;;;0.60;;
28862;SDS011;15994;51.796;13.006;2023-04-01T12:02:08;2.03;;;0.60;;
28862;SDS011;15994;51.796;13.006;2023-04-01T12:04:54;3.27;;;0.80;;
28862;SDS011;15994;51.796;13.006;2023-04-01T12:13:00;1.95;;;0.80;;
28862;SDS011;15994;51.796;13.006;2023-04-01T12:18:21;7.18;;;1.00;;
28862;SDS011;15994;51.796;13.006;2023-04-01T12:20:57;2.47;;;0.70;;
28862;SDS011;15994;51.796;13.006;2023-04-01T12:39:50;2.45;;;0.80;;
28862;SDS011;15994;51.796;13.006;2023-04-01T12:45:15;2.38;;;0.50;;
28862;SDS011;15994;51.796;13.006;2023-04-01T12:56:49;2.60;;;0.50;;
28862;SDS011;15994;51.796;13.006;2023-04-01T13:08:00;2.53;;;0.43;;
28862;SDS011;15994;51.796;13.006;2023-04-01T13:16:26;1.83;;;0.50;;
28862;SDS011;15994;51.796;13.006;2023-04-01T13:21:53;1.63;;;0.43;;
28862;SDS011;15994;51.796;13.006;2023-04-01T13:43:34;3.67;;;0.73;;
28862;SDS011;15994;51.796;13.006;2023-04-01T13:51:47;1.17;;;0.60;;
28862;SDS011;15994;51.796;13.006;2023-04-01T14:00:48;2.35;;;0.80;;
28862;SDS011;15994;51.796;13.006;2023-04-01T14:06:13;2.22;;;0.65;;
28862;SDS011;15994;51.796;13.006;2023-04-01T14:14:37;1.65;;;0.60;;
28862;SDS011;15994;51.796;13.006;2023-04-01T14:22:55;2.15;;;0.73;;
28862;SDS011;15994;51.796;13.006;2023-04-01T14:31:24;2.53;;;0.55;;
28862;SDS011;15994;51.796;13.006;2023-04-01T14:36:56;4.40;;;0.93;;
28862;SDS011;15994;51.796;13.006;2023-04-01T14:47:59;2.53;;;0.90;;
28862;SDS011;15994;51.796;13.006;2023-04-01T14:50:30;1.83;;;0.70;;
28862;SDS011;15994;51.796;13.006;2023-04-01T14:55:58;2.75;;;0.70;;
28862;SDS011;15994;51.796;13.006;2023-04-01T15:04:46;2.33;;;0.30;;
28862;SDS011;15994;51.796;13.006;2023-04-01T15:07:21;1.25;;;0.35;;
28862;SDS011;15994;51.796;13.006;2023-04-01T15:15:49;1.20;;;0.47;;
28862;SDS011;15994;51.796;13.006;2023-04-01T15:18:41;1.55;;;0.30;;
28862;SDS011;15994;51.796;13.006;2023-04-01T15:27:32;3.25;;;0.65;;
28862;SDS011;15994;51.796;13.006;2023-04-01T15:32:53;2.10;;;0.73;;
28862;SDS011;15994;51.796;13.006;2023-04-01T15:38:10;3.58;;;1.38;;
28862;SDS011;15994;51.796;13.006;2023-04-01T15:43:56;3.88;;;2.58;;
28862;SDS011;15994;51.796;13.006;2023-04-01T15:46:26;3.92;;;3.40;;
28862;SDS011;15994;51.796;13.006;2023-04-01T15:51:38;5.10;;;4.00;;
28862;SDS011;15994;51.796;13.006;2023-04-01T15:54:31;6.38;;;3.63;;
28862;SDS011;15994;51.796;13.006;2023-04-01T16:08:33;3.47;;;3.00;;
28862;SDS011;15994;51.796;13.006;2023-04-01T16:14:18;5.63;;;4.00;;
28862;SDS011;15994;51.796;13.006;2023-04-01T16:17:05;5.25;;;3.70;;
28862;SDS011;15994;51.796;13.006;2023-04-01T16:19:59;5.28;;;4.00;;
28862;SDS011;15994;51.796;13.006;2023-04-01T16:23:04;4.93;;;4.13;;
28862;SDS011;15994;51.796;13.006;2023-04-01T16:25:44;4.53;;;3.50;;
28862;SDS011;15994;51.796;13.006;2023-04-01T16:30:56;5.75;;;4.20;;
28862;SDS011;15994;51.796;13.006;2023-04-01T16:44:44;6.32;;;4.93;;
28862;SDS011;15994;51.796;13.006;2023-04-01T16:47:22;6.80;;;4.80;;
28862;SDS011;15994;51.796;13.006;2023-04-01T16:58:55;6.05;;;5.00;;
28862;SDS011;15994;51.796;13.006;2023-04-01T17:04:17;6.63;;;5.32;;
28862;SDS011;15994;51.796;13.006;2023-04-01T17:10:00;6.03;;;5.43;;
28862;SDS011;15994;51.796;13.006;2023-04-01T17:16:07;5.45;;;4.60;;
28862;SDS011;15994;51.796;13.006;2023-04-01T17:18:23;6.85;;;5.32;;
28862;SDS011;15994;51.796;13.006;2023-04-01T17:21:07;6.40;;;5.22;;
28862;SDS011;15994;51.796;13.006;2023-04-01T17:23:47;7.40;;;5.88;;
28862;SDS011;15994;51.796;13.006;2023-04-01T17:29:16;8.05;;;6.80;;
28862;SDS011;15994;51.796;13.006;2023-04-01T17:32:03;7.75;;;6.35;;
28862;SDS011;15994;51.796;13.006;2023-04-01T17:34:55;7.00;;;4.97;;
28862;SDS011;15994;51.796;13.006;2023-04-01T17:43:37;7.65;;;5.60;;
28862;SDS011;15994;51.796;13.006;2023-04-01T18:06:01;4.60;;;3.42;;
28862;SDS011;15994;51.796;13.006;2023-04-01T18:17:12;4.63;;;3.78;;
28862;SDS011;15994;51.796;13.006;2023-04-01T18:20:01;4.82;;;3.60;;
28862;SDS011;15994;51.796;13.006;2023-04-01T18:22:53;4.30;;;3.42;;
28862;SDS011;15994;51.796;13.006;2023-04-01T18:25:43;4.80;;;4.00;;
28862;SDS011;15994;51.796;13.006;2023-04-01T18:47:38;6.10;;;4.20;;
28862;SDS011;15994;51.796;13.006;2023-04-01T18:50:36;6.18;;;4.47;;
28862;SDS011;15994;51.796;13.006;2023-04-01T18:56:27;7.35;;;4.72;;
28862;SDS011;15994;51.796;13.006;2023-04-01T19:02:33;9.05;;;4.82;;
28862;SDS011;15994;51.796;13.006;2023-04-01T19:05:02;8.15;;;5.95;;
28862;SDS011;15994;51.796;13.006;2023-04-01T19:15:56;7.53;;;6.15;;
28862;SDS011;15994;51.796;13.006;2023-04-01T19:23:57;5.85;;;4.97;;
28862;SDS011;15994;51.796;13.006;2023-04-01T19:29:43;6.88;;;5.18;;
28862;SDS011;15994;51.796;13.006;2023-04-01T19:35:10;6.03;;;5.20;;
28862;SDS011;15994;51.796;13.006;2023-04-01T19:41:14;5.95;;;4.22;;
28862;SDS011;15994;51.796;13.006;2023-04-01T19:46:29;6.13;;;4.85;;
28862;SDS011;15994;51.796;13.006;2023-04-01T19:49:36;5.50;;;4.72;;
28862;SDS011;15994;51.796;13.006;2023-04-01T19:52:06;5.03;;;4.18;;
28862;SDS011;15994;51.796;13.006;2023-04-01T19:54:46;4.65;;;3.63;;
28862;SDS011;15994;51.796;13.006;2023-04-01T20:00:07;4.50;;;3.45;;
28862;SDS011;15994;51.796;13.006;2023-04-01T20:11:27;5.70;;;3.95;;
28862;SDS011;15994;51.796;13.006;2023-04-01T20:16:47;4.97;;;4.10;;
28862;SDS011;15994;51.796;13.006;2023-04-01T20:19:20;4.70;;;3.85;;
28862;SDS011;15994;51.796;13.006;2023-04-01T20:21:52;4.95;;;3.45;;
28862;SDS011;15994;51.796;13.006;2023-04-01T20:24:35;5.78;;;3.92;;
28862;SDS011;15994;51.796;13.006;2023-04-01T20:35:00;4.93;;;3.85;;
28862;SDS011;15994;51.796;13.006;2023-04-01T20:37:53;5.47;;;4.18;;
28862;SDS011;15994;51.796;13.006;2023-04-01T20:40:33;5.93;;;4.28;;
28862;SDS011;15994;51.796;13.006;2023-04-01T20:43:10;6.20;;;3.45;;
28862;SDS011;15994;51.796;13.006;2023-04-01T20:46:01;5.72;;;4.25;;
28862;SDS011;15994;51.796;13.006;2023-04-01T20:51:25;6.03;;;4.50;;
28862;SDS011;15994;51.796;13.006;2023-04-01T20:56:54;5.75;;;4.00;;
28862;SDS011;15994;51.796;13.006;2023-04-01T20:59:33;4.97;;;4.38;;
28862;SDS011;15994;51.796;13.006;2023-04-01T21:02:10;6.88;;;4.75;;
28862;SDS011;15994;51.796;13.006;2023-04-01T21:05:04;7.13;;;4.53;;
28862;SDS011;15994;51.796;13.006;2023-04-01T21:07:50;6.57;;;4.78;;
28862;SDS011;15994;51.796;13.006;2023-04-01T21:10:37;5.78;;;4.57;;
28862;SDS011;15994;51.796;13.006;2023-04-01T21:13:32;6.22;;;4.90;;
28862;SDS011;15994;51.796;13.006;2023-04-01T21:19:20;7.60;;;4.80;;
28862;SDS011;15994;51.796;13.006;2023-04-01T21:22:25;7.25;;;4.80;;
28862;SDS011;15994;51.796;13.006;2023-04-01T21:27:58;6.07;;;4.28;;
28862;SDS011;15994;51.796;13.006;2023-04-01T21:33:34;5.75;;;4.75;;
28862;SDS011;15994;51.796;13.006;2023-04-01T21:53:26;6.13;;;3.95;;
28862;SDS011;15994;51.796;13.006;2023-04-01T22:02:46;5.82;;;3.65;;
28862;SDS011;15994;51.796;13.006;2023-04-01T22:05:02;5.13;;;3.95;;
28862;SDS011;15994;51.796;13.006;2023-04-01T22:07:59;5.55;;;3.60;;
28862;SDS011;15994;51.796;13.006;2023-04-01T22:20:13;5.22;;;3.42;;
28862;SDS011;15994;51.796;13.006;2023-04-01T22:22:49;6.38;;;3.72;;
28862;SDS011;15994;51.796;13.006;2023-04-01T22:28:39;8.98;;;3.65;;
28862;SDS011;15994;51.796;13.006;2023-04-01T22:31:26;6.10;;;3.35;;
28862;SDS011;15994;51.796;13.006;2023-04-01T22:37:02;6.47;;;3.65;;
28862;SDS011;15994;51.796;13.006;2023-04-01T22:44:58;5.60;;;3.65;;
28862;SDS011;15994;51.796;13.006;2023-04-01T22:50:20;5.63;;;3.83;;
28862;SDS011;15994;51.796;13.006;2023-04-01T22:53:06;6.88;;;4.40;;
28862;SDS011;15994;51.796;13.006;2023-04-01T22:55:44;6.03;;;4.18;;
28862;SDS011;15994;51.796;13.006;2023-04-01T22:58:15;5.82;;;4.30;;
28862;SDS011;15994;51.796;13.006;2023-04-01T23:00:53;7.90;;;4.45;;
28862;SDS011;15994;51.796;13.006;2023-04-01T23:03:32;9.15;;;4.65;;
28862;SDS011;15994;51.796;13.006;2023-04-01T23:06:02;6.90;;;4.68;;
28862;SDS011;15994;51.796;13.006;2023-04-01T23:11:17;6.13;;;4.45;;
28862;SDS011;15994;51.796;13.006;2023-04-01T23:13:52;8.07;;;5.32;;
28862;SDS011;15994;51.796;13.006;2023-04-01T23:16:35;8.15;;;5.70;;
28862;SDS011;15994;51.796;13.006;2023-04-01T23:19:17;8.63;;;5.68;;
28862;SDS011;15994;51.796;13.006;2023-04-01T23:24:44;9.20;;;6.22;;
28862;SDS011;15994;51.796;13.006;2023-04-01T23:27:41;9.68;;;6.80;;
28862;SDS011;15994;51.796;13.006;2023-04-01T23:33:26;10.63;;;6.55;;
28862;SDS011;15994;51.796;13.006;2023-04-01T23:36:01;10.40;;;6.63;;
28862;SDS011;15994;51.796;13.006;2023-04-01T23:38:38;8.55;;;5.65;;
28862;SDS011;15994;51.796;13.006;2023-04-01T23:41:07;9.25;;;5.88;;
28862;SDS011;15994;51.796;13.006;2023-04-01T23:43:43;12.13;;;6.72;;
28862;SDS011;15994;51.796;13.006;2023-04-01T23:46:11;9.05;;;6.05;;
28862;SDS011;15994;51.796;13.006;2023-04-01T23:48:40;11.35;;;6.20;;
28862;SDS011;15994;51.796;13.006;2023-04-01T23:51:19;11.57;;;6.22;;
28862;SDS011;15994;51.796;13.006;2023-04-01T23:54:03;12.48;;;6.10;;
28862;SDS011;15994;51.796;13.006;2023-04-01T23:56:50;10.88;;;6.03;;
28862;SDS011;15994;51.796;13.006;2023-04-01T23:59:23;10.27;;;6.07;;
